SUNNY01 VLVT-VTUL
Flight info
| Callsign | SUNNY01 |
|---|---|
| Flight time | N/A |
| Altitude | 1500 |
| Route | DCT VTUL |
| Aircraft | C172/L-SFG/C |
Departure
| Time | 2026-05-05 12:54 |
|---|---|
| Airport | Wattay International Airport (VLVT) |
Arrival
| Time | N/A |
|---|---|
| Airport | Loei Airport (VTUL) |
| Time | Latitude | Longitude | Altitude | Speed | Heading |
|---|---|---|---|---|---|
| 2026-05-05 12:48 | 17.97430 | 102.57276 | 558 ft | 0 kts | 315° |
| 2026-05-05 12:49 | 17.97440 | 102.57273 | 561 ft | 7 kts | 13° |
| 2026-05-05 12:50 | 17.97441 | 102.57287 | 560 ft | 11 kts | 87° |
| 2026-05-05 12:50 | 17.97486 | 102.57339 | 558 ft | 10 kts | 328° |
| 2026-05-05 12:50 | 17.97549 | 102.57276 | 558 ft | 15 kts | 344° |
| 2026-05-05 12:50 | 17.97652 | 102.57281 | 560 ft | 14 kts | 2° |
| 2026-05-05 12:51 | 17.97739 | 102.57283 | 557 ft | 12 kts | 3° |
| 2026-05-05 12:51 | 17.97817 | 102.57284 | 557 ft | 11 kts | 359° |
| 2026-05-05 12:51 | 17.97880 | 102.57276 | 562 ft | 8 kts | 347° |
| 2026-05-05 12:51 | 17.97928 | 102.57254 | 558 ft | 7 kts | 330° |
| 2026-05-05 12:52 | 17.97976 | 102.57210 | 554 ft | 22 kts | 314° |
| 2026-05-05 12:52 | 17.98180 | 102.57000 | 557 ft | 59 kts | 314° |
| 2026-05-05 12:52 | 17.98558 | 102.56615 | 567 ft | 88 kts | 317° |
| 2026-05-05 12:52 | 17.99056 | 102.56122 | 592 ft | 106 kts | 316° |
| 2026-05-05 12:53 | 17.99583 | 102.55545 | 726 ft | 106 kts | 311° |
| 2026-05-05 12:53 | 17.99915 | 102.54915 | 936 ft | 98 kts | 263° |
| 2026-05-05 12:53 | 17.99737 | 102.54256 | 1085 ft | 91 kts | 249° |
| 2026-05-05 12:53 | 17.99374 | 102.53683 | 1142 ft | 95 kts | 234° |
| 2026-05-05 12:54 | 17.98583 | 102.52604 | 1373 ft | 93 kts | 232° |
| 2026-05-05 12:54 | 17.98194 | 102.52057 | 1463 ft | 95 kts | 230° |
| 2026-05-05 12:54 | 17.97892 | 102.51690 | 1464 ft | 103 kts | 230° |
| 2026-05-05 12:55 | 17.97218 | 102.51025 | 1605 ft | 102 kts | 218° |
| 2026-05-05 12:55 | 17.96854 | 102.50719 | 1659 ft | 103 kts | 221° |
| 2026-05-05 12:55 | 17.96352 | 102.50171 | 1716 ft | 106 kts | 231° |
| 2026-05-05 12:55 | 17.95922 | 102.49569 | 1843 ft | 101 kts | 231° |
| 2026-05-05 12:56 | 17.95425 | 102.49031 | 1906 ft | 103 kts | 220° |
| 2026-05-05 12:56 | 17.94735 | 102.48308 | 1920 ft | 110 kts | 224° |
| 2026-05-05 12:56 | 17.94362 | 102.47931 | 1948 ft | 110 kts | 223° |
| 2026-05-05 12:56 | 17.93834 | 102.47355 | 2007 ft | 109 kts | 228° |
| 2026-05-05 12:57 | 17.93312 | 102.46776 | 2054 ft | 110 kts | 225° |
| 2026-05-05 12:57 | 17.92768 | 102.46190 | 2068 ft | 113 kts | 225° |
| 2026-05-05 12:57 | 17.92231 | 102.45595 | 2130 ft | 110 kts | 227° |
| 2026-05-05 12:57 | 17.91695 | 102.45022 | 2166 ft | 108 kts | 225° |
| 2026-05-05 12:58 | 17.91174 | 102.44481 | 2163 ft | 107 kts | 224° |
| 2026-05-05 12:58 | 17.90638 | 102.43943 | 2153 ft | 106 kts | 223° |
| 2026-05-05 12:58 | 17.90117 | 102.43398 | 2153 ft | 105 kts | 226° |
| 2026-05-05 12:58 | 17.89626 | 102.42833 | 2144 ft | 105 kts | 230° |
| 2026-05-05 12:59 | 17.89157 | 102.42255 | 2172 ft | 102 kts | 229° |
| 2026-05-05 12:59 | 17.88707 | 102.41673 | 2148 ft | 104 kts | 235° |
| 2026-05-05 12:59 | 17.88313 | 102.41041 | 2179 ft | 100 kts | 237° |
| 2026-05-05 13:00 | 17.87635 | 102.39866 | 2295 ft | 93 kts | 240° |
| 2026-05-05 13:00 | 17.87322 | 102.39267 | 2329 ft | 94 kts | 240° |
| 2026-05-05 13:01 | 17.86314 | 102.37450 | 2465 ft | 102 kts | 234° |
| 2026-05-05 13:01 | 17.85887 | 102.36815 | 2472 ft | 110 kts | 235° |
| 2026-05-05 13:01 | 17.85440 | 102.36163 | 2513 ft | 112 kts | 232° |
| 2026-05-05 13:01 | 17.84952 | 102.35518 | 2560 ft | 112 kts | 230° |
| 2026-05-05 13:02 | 17.84484 | 102.34874 | 2622 ft | 111 kts | 232° |
| 2026-05-05 13:02 | 17.84027 | 102.34202 | 2631 ft | 112 kts | 233° |
| 2026-05-05 13:02 | 17.83545 | 102.33530 | 2574 ft | 119 kts | 232° |
| 2026-05-05 13:02 | 17.82991 | 102.32768 | 2320 ft | 138 kts | 231° |
| 2026-05-05 13:03 | 17.82390 | 102.31950 | 2119 ft | 136 kts | 233° |
| 2026-05-05 13:03 | 17.81783 | 102.31096 | 1760 ft | 144 kts | 234° |
| 2026-05-05 13:03 | 17.81197 | 102.30237 | 1586 ft | 135 kts | 235° |
| 2026-05-05 13:03 | 17.80695 | 102.29468 | 1637 ft | 127 kts | 235° |
| 2026-05-05 13:04 | 17.80166 | 102.28717 | 1482 ft | 126 kts | 230° |
| 2026-05-05 13:04 | 17.79613 | 102.28015 | 1398 ft | 120 kts | 232° |
| 2026-05-05 13:04 | 17.79124 | 102.27365 | 1454 ft | 112 kts | 231° |
| 2026-05-05 13:04 | 17.78610 | 102.26715 | 1469 ft | 117 kts | 228° |
| 2026-05-05 13:05 | 17.78232 | 102.25958 | 1525 ft | 120 kts | 249° |
| 2026-05-05 13:05 | 17.77789 | 102.25198 | 1518 ft | 123 kts | 238° |
| 2026-05-05 13:05 | 17.77350 | 102.24404 | 1464 ft | 128 kts | 241° |
| 2026-05-05 13:05 | 17.76916 | 102.23569 | 1395 ft | 130 kts | 242° |
| 2026-05-05 13:06 | 17.76494 | 102.22738 | 1439 ft | 123 kts | 243° |
| 2026-05-05 13:06 | 17.76111 | 102.21931 | 1456 ft | 124 kts | 244° |
| 2026-05-05 13:06 | 17.75713 | 102.21115 | 1426 ft | 128 kts | 243° |
| 2026-05-05 13:06 | 17.75295 | 102.20298 | 1424 ft | 127 kts | 242° |
| 2026-05-05 13:07 | 17.74836 | 102.19491 | 1377 ft | 129 kts | 237° |
| 2026-05-05 13:07 | 17.74307 | 102.18720 | 1276 ft | 134 kts | 232° |
| 2026-05-05 13:07 | 17.73721 | 102.17929 | 1128 ft | 137 kts | 232° |
| 2026-05-05 13:07 | 17.73148 | 102.17187 | 1151 ft | 132 kts | 230° |
| 2026-05-05 13:08 | 17.72520 | 102.16458 | 1021 ft | 137 kts | 226° |
| 2026-05-05 13:08 | 17.71935 | 102.15775 | 1280 ft | 110 kts | 232° |
| 2026-05-05 13:08 | 17.71510 | 102.15168 | 1480 ft | 104 kts | 233° |
| 2026-05-05 13:08 | 17.71056 | 102.14512 | 1480 ft | 117 kts | 234° |
| 2026-05-05 13:09 | 17.70612 | 102.13767 | 1492 ft | 124 kts | 238° |
| 2026-05-05 13:09 | 17.70135 | 102.12982 | 1474 ft | 129 kts | 238° |
| 2026-05-05 13:09 | 17.69694 | 102.12150 | 1480 ft | 132 kts | 242° |
| 2026-05-05 13:09 | 17.69264 | 102.11292 | 1482 ft | 132 kts | 240° |
| 2026-05-05 13:10 | 17.68753 | 102.10486 | 1473 ft | 134 kts | 239° |
| 2026-05-05 13:10 | 17.68363 | 102.09623 | 1465 ft | 132 kts | 252° |
| 2026-05-05 13:10 | 17.68122 | 102.08712 | 1479 ft | 129 kts | 255° |
| 2026-05-05 13:10 | 17.67884 | 102.07827 | 1556 ft | 124 kts | 254° |
| 2026-05-05 13:11 | 17.67531 | 102.06991 | 1529 ft | 127 kts | 221° |
| 2026-05-05 13:11 | 17.66834 | 102.06557 | 1771 ft | 110 kts | 207° |
| 2026-05-05 13:11 | 17.66270 | 102.05970 | 1545 ft | 115 kts | 220° |
| 2026-05-05 13:11 | 17.65676 | 102.05994 | 1394 ft | 61 kts | 165° |
| 2026-05-05 13:12 | 17.65239 | 102.06039 | 1255 ft | 71 kts | 141° |
| 2026-05-05 13:12 | 17.64830 | 102.06258 | 1149 ft | 54 kts | 170° |
| 2026-05-05 13:12 | 17.64294 | 102.06112 | 1425 ft | 58 kts | 200° |
| 2026-05-05 13:12 | 17.61185 | 102.03666 | 2583 ft | 1294 kts | 227° |
| 2026-05-05 13:13 | 17.60357 | 102.02761 | 2340 ft | 127 kts | 227° |
| 2026-05-05 13:13 | 17.59890 | 102.01961 | 2269 ft | 130 kts | 244° |
| 2026-05-05 13:13 | 17.59511 | 102.01124 | 2317 ft | 126 kts | 244° |
| 2026-05-05 13:13 | 17.59297 | 102.00247 | 1926 ft | 127 kts | 276° |
| 2026-05-05 13:14 | 17.59453 | 101.99475 | 1862 ft | 88 kts | 285° |
| 2026-05-05 13:14 | 17.59743 | 101.98997 | 1615 ft | 79 kts | 330° |
| 2026-05-05 13:14 | 17.60266 | 101.99001 | 1391 ft | 63 kts | 9° |
| 2026-05-05 13:14 | 17.60355 | 101.99002 | 1421 ft | 0 kts | 72° |
| 2026-05-05 13:15 | 17.60381 | 101.99043 | 1426 ft | 16 kts | 18° |
| 2026-05-05 13:15 | 17.60619 | 101.99192 | 1349 ft | 0 kts | 98° |
| 2026-05-05 13:15 | 17.60987 | 101.99586 | 1530 ft | 0 kts | 9° |
| 2026-05-05 13:15 | 17.61397 | 101.99850 | 1327 ft | 77 kts | 9° |
| 2026-05-05 13:16 | 17.61816 | 101.99774 | 1325 ft | 54 kts | 345° |
| 2026-05-05 13:16 | 17.62270 | 101.99556 | 1429 ft | 70 kts | 300° |
| 2026-05-05 13:16 | 17.62208 | 101.99073 | 1300 ft | 46 kts | 257° |